Time;durP1;ratioP1;P1;durP2;ratioP2;P2;SDS_P1;SDS_P2;PMS_P1;PMS_P2;Temp;Humidity;BMP_temperature;BMP_pressure;BME280_temperature;BME280_humidity;BME280_pressure;Samples;Min_cycle;Max_cycle;Signal;HPM_P1;HPM_P2
2022/10/08 00:00:05;;;;;;;14.27;8.77;;;15.20;99.90;;;;;;5035035;28;20030;-72
2022/10/08 00:02:31;;;;;;;17.10;9.38;;;15.30;99.90;;;;;;5051397;28;20026;-72
2022/10/08 00:04:56;;;;;;;21.23;8.68;;;15.20;99.90;;;;;;5023299;28;20047;-72
2022/10/08 00:07:22;;;;;;;18.75;8.60;;;15.30;99.90;;;;;;5015115;28;20459;-73
2022/10/08 00:09:48;;;;;;;21.73;8.10;;;15.40;99.90;;;;;;5001871;28;20026;-72
2022/10/08 00:12:13;;;;;;;11.33;8.37;;;15.30;99.90;;;;;;5011357;28;20427;-72
2022/10/08 00:14:39;;;;;;;12.90;8.23;;;15.40;99.90;;;;;;5019321;28;20029;-71
2022/10/08 00:17:05;;;;;;;12.70;8.18;;;15.30;99.90;;;;;;5032685;28;20065;-72
2022/10/08 00:19:31;;;;;;;18.35;9.20;;;15.30;99.90;;;;;;5016873;28;20398;-72
2022/10/08 00:21:56;;;;;;;13.55;8.07;;;15.30;99.90;;;;;;5016621;28;20076;-71
2022/10/08 00:24:22;;;;;;;12.95;8.95;;;15.30;99.90;;;;;;5016283;28;20068;-71
2022/10/08 00:26:49;;;;;;;14.50;8.45;;;15.20;99.90;;;;;;5015135;28;20085;-72
2022/10/08 00:29:16;;;;;;;17.13;9.18;;;15.20;99.90;;;;;;5016433;28;20026;-71
2022/10/08 00:31:44;;;;;;;13.82;8.68;;;15.20;99.90;;;;;;5015057;28;20474;-72
2022/10/08 00:34:13;;;;;;;15.98;9.43;;;15.20;99.90;;;;;;5015976;28;20033;-72
2022/10/08 00:36:40;;;;;;;16.60;9.73;;;15.20;99.90;;;;;;5010981;28;20027;-72
2022/10/08 00:39:12;;;;;;;17.05;9.35;;;15.20;99.90;;;;;;4995875;28;20517;-72
2022/10/08 00:41:38;;;;;;;17.80;9.70;;;15.30;99.90;;;;;;4995199;28;20502;-73
2022/10/08 00:44:23;;;;;;;;;;;15.30;99.90;;;;;;4995284;28;20077;-71
2022/10/08 00:46:49;;;;;;;18.27;11.25;;;15.10;99.90;;;;;;5030033;28;20413;-72
2022/10/08 00:49:19;;;;;;;16.92;9.95;;;15.10;99.90;;;;;;5015063;28;20431;-72
2022/10/08 00:51:53;;;;;;;21.60;10.02;;;15.10;99.90;;;;;;5014915;28;20536;-72
2022/10/08 00:54:20;;;;;;;14.98;9.82;;;15.20;99.90;;;;;;5012887;28;20034;-71
2022/10/08 00:56:51;;;;;;;14.48;9.43;;;15.10;99.90;;;;;;5013294;28;20406;-72
2022/10/08 00:59:16;;;;;;;18.02;9.48;;;15.20;99.90;;;;;;5014602;28;20084;-72
2022/10/08 01:01:43;;;;;;;17.60;9.63;;;15.10;99.90;;;;;;5014737;28;20033;-71
2022/10/08 01:04:10;;;;;;;22.38;9.88;;;15.20;99.90;;;;;;5013795;28;20113;-70
2022/10/08 01:07:10;;;;;;;18.10;10.13;;;15.20;99.90;;;;;;4994662;28;20026;-71
2022/10/08 01:10:05;;;;;;;13.93;9.93;;;15.20;99.90;;;;;;4993230;28;20483;-71
2022/10/08 01:12:43;;;;;;;15.73;9.77;;;15.20;99.90;;;;;;4995186;28;20506;-72
2022/10/08 01:15:32;;;;;;;16.98;10.45;;;15.20;99.90;;;;;;4993271;28;20443;-72
2022/10/08 01:18:18;;;;;;;18.42;9.82;;;15.30;99.90;;;;;;4993323;28;20030;-72
2022/10/08 01:20:44;;;;;;;16.88;9.88;;;15.20;99.90;;;;;;5007886;28;20045;-72
2022/10/08 01:23:28;;;;;;;16.45;9.57;;;15.20;99.90;;;;;;5014465;28;20483;-71
2022/10/08 01:25:54;;;;;;;25.00;10.63;;;15.30;99.90;;;;;;5014785;28;20030;-72
2022/10/08 01:28:42;;;;;;;18.30;11.93;;;15.20;99.90;;;;;;5013491;28;20084;-72
2022/10/08 01:31:31;;;;;;;18.55;9.77;;;15.20;99.90;;;;;;5013558;28;20089;-72
2022/10/08 01:34:05;;;;;;;15.68;10.25;;;15.20;99.90;;;;;;5014679;28;20029;-72
2022/10/08 01:36:37;;;;;;;15.43;9.82;;;15.30;99.90;;;;;;5012540;28;20025;-72
2022/10/08 01:39:08;;;;;;;21.58;10.00;;;15.30;99.90;;;;;;5013802;28;20084;-71
2022/10/08 01:41:34;;;;;;;14.40;9.82;;;15.30;99.90;;;;;;5014426;28;20044;-72
2022/10/08 01:44:14;;;;;;;18.02;9.93;;;15.40;99.90;;;;;;5014948;28;20030;-72
2022/10/08 01:46:43;;;;;;;16.20;10.32;;;15.40;99.90;;;;;;4994700;28;20035;-71
2022/10/08 01:49:16;;;;;;;18.27;10.52;;;15.30;99.90;;;;;;4994830;28;20137;-72
2022/10/08 01:51:55;;;;;;;16.15;10.13;;;15.30;99.90;;;;;;5000103;28;20022;-72
2022/10/08 01:54:23;;;;;;;16.90;10.30;;;15.20;99.90;;;;;;5011860;28;20029;-71
2022/10/08 01:56:51;;;;;;;17.63;11.25;;;15.20;99.90;;;;;;5012263;28;20065;-72
2022/10/08 01:59:24;;;;;;;19.05;10.95;;;15.20;99.90;;;;;;5013934;28;20033;-72
2022/10/08 02:01:58;;;;;;;21.10;11.20;;;15.30;99.90;;;;;;5012876;28;20029;-72
2022/10/08 02:04:32;;;;;;;21.48;10.82;;;15.40;99.90;;;;;;5012077;28;20487;-71
2022/10/08 02:07:09;;;;;;;17.90;10.68;;;15.30;99.90;;;;;;5013464;28;20061;-72
2022/10/08 02:09:39;;;;;;;14.63;10.15;;;15.30;99.90;;;;;;5013015;28;20018;-70
2022/10/08 02:12:05;;;;;;;18.02;10.05;;;15.30;99.90;;;;;;5014256;28;20156;-72
2022/10/08 02:14:32;;;;;;;16.92;10.57;;;15.30;99.90;;;;;;5013329;28;20033;-71
2022/10/08 02:17:28;;;;;;;18.35;10.35;;;15.30;99.90;;;;;;5012340;28;20026;-72
2022/10/08 02:20:02;;;;;;;19.48;10.18;;;15.40;99.90;;;;;;5028615;28;20030;-71
2022/10/08 02:22:43;;;;;;;18.55;9.95;;;15.40;99.90;;;;;;5013501;28;20105;-71
2022/10/08 02:25:37;;;;;;;16.10;10.27;;;15.30;99.90;;;;;;5028270;28;20121;-71
2022/10/08 02:28:15;;;;;;;22.35;10.43;;;15.30;99.90;;;;;;5011886;28;20388;-70
2022/10/08 02:31:08;;;;;;;22.35;9.32;;;15.10;99.90;;;;;;5013335;28;20025;-72
2022/10/08 02:33:39;;;;;;;14.30;9.57;;;15.10;99.90;;;;;;4992450;28;20030;-72
2022/10/08 02:36:08;;;;;;;16.17;10.48;;;15.10;99.90;;;;;;4992382;28;20022;-71
2022/10/08 02:38:39;;;;;;;19.98;10.43;;;15.10;99.90;;;;;;4965590;28;20034;-72
2022/10/08 02:41:07;;;;;;;17.10;9.98;;;15.10;99.90;;;;;;4981904;28;20027;-72
2022/10/08 02:43:38;;;;;;;14.57;10.35;;;15.00;99.90;;;;;;5007678;28;20031;-71
2022/10/08 02:46:13;;;;;;;17.02;10.63;;;15.10;99.90;;;;;;4991482;28;20027;-71
2022/10/08 02:49:03;;;;;;;16.23;10.20;;;15.10;99.90;;;;;;4991000;28;20034;-72
2022/10/08 02:51:31;;;;;;;21.15;11.00;;;15.10;99.90;;;;;;4975851;28;20181;-71
2022/10/08 02:53:58;;;;;;;20.27;10.93;;;15.00;99.90;;;;;;4975439;28;20035;-72
2022/10/08 02:56:34;;;;;;;20.35;13.15;;;15.00;99.90;;;;;;4985226;28;20034;-71
2022/10/08 02:59:00;;;;;;;22.95;14.05;;;15.00;99.90;;;;;;4983337;28;20033;-71
2022/10/08 03:01:42;;;;;;;22.67;16.02;;;15.10;99.90;;;;;;4994706;28;20026;-71
2022/10/08 03:04:19;;;;;;;19.25;10.88;;;15.20;99.90;;;;;;4994905;28;20475;-71
2022/10/08 03:06:47;;;;;;;20.45;11.07;;;15.30;99.90;;;;;;4978298;28;20026;-71
2022/10/08 03:09:14;;;;;;;18.23;11.88;;;15.30;99.90;;;;;;4979056;28;20026;-72
2022/10/08 03:11:40;;;;;;;17.52;10.63;;;15.40;99.90;;;;;;5015572;28;20030;-70
2022/10/08 03:14:08;;;;;;;15.23;10.40;;;15.30;99.90;;;;;;5014874;28;20502;-71
2022/10/08 03:16:40;;;;;;;16.52;11.15;;;15.30;99.90;;;;;;5016219;28;20040;-72
2022/10/08 03:19:11;;;;;;;22.52;10.70;;;15.20;99.90;;;;;;5016098;28;20037;-72
2022/10/08 03:21:39;;;;;;;22.10;11.65;;;15.30;99.90;;;;;;5015628;28;20368;-71
2022/10/08 03:24:06;;;;;;;21.95;11.90;;;15.30;99.90;;;;;;5014676;28;20026;-72
2022/10/08 03:26:31;;;;;;;17.83;11.25;;;15.30;99.90;;;;;;5014504;28;20124;-72
2022/10/08 03:28:57;;;;;;;19.33;11.52;;;15.30;99.90;;;;;;5015990;28;20096;-72
2022/10/08 03:31:22;;;;;;;19.27;10.27;;;15.40;99.90;;;;;;5015812;28;20040;-71
2022/10/08 03:33:49;;;;;;;20.23;12.17;;;15.40;99.90;;;;;;5016259;28;20033;-71
2022/10/08 03:36:15;;;;;;;17.70;11.70;;;15.30;99.90;;;;;;5030889;28;20030;-71
2022/10/08 03:38:40;;;;;;;20.57;12.70;;;15.40;99.90;;;;;;5015740;28;20048;-72
2022/10/08 03:41:08;;;;;;;18.63;10.93;;;15.40;99.90;;;;;;5015821;28;20374;-72
2022/10/08 03:43:34;;;;;;;17.52;10.80;;;15.30;99.90;;;;;;5015736;28;20264;-71
2022/10/08 03:46:00;;;;;;;20.10;10.55;;;15.30;99.90;;;;;;5014864;28;20376;-71
2022/10/08 03:48:25;;;;;;;16.65;10.95;;;15.30;99.90;;;;;;5015959;28;20068;-71
2022/10/08 03:50:59;;;;;;;18.15;12.25;;;15.40;99.90;;;;;;5015876;28;20030;-72
2022/10/08 03:53:25;;;;;;;21.95;11.40;;;15.30;99.90;;;;;;5015372;28;20037;-72
2022/10/08 03:55:52;;;;;;;20.15;11.43;;;15.30;99.90;;;;;;5015610;28;20026;-71
2022/10/08 03:58:18;;;;;;;21.65;12.27;;;15.40;99.90;;;;;;5015154;28;20073;-71
2022/10/08 04:00:54;;;;;;;18.98;11.95;;;15.40;99.90;;;;;;5014339;28;20406;-71
2022/10/08 04:03:19;;;;;;;20.60;12.10;;;15.30;99.90;;;;;;5015805;28;20088;-71
2022/10/08 04:05:49;;;;;;;22.10;12.30;;;15.30;99.90;;;;;;5030620;28;20030;-72
2022/10/08 04:08:14;;;;;;;22.33;12.85;;;15.20;99.90;;;;;;5013925;28;20026;-72
2022/10/08 04:10:40;;;;;;;17.27;12.05;;;15.30;99.90;;;;;;5015090;28;20028;-71
2022/10/08 04:13:05;;;;;;;19.67;13.57;;;15.30;99.90;;;;;;5014939;28;20029;-70
2022/10/08 04:15:31;;;;;;;25.50;12.63;;;15.30;99.90;;;;;;5013888;28;20029;-71
2022/10/08 04:17:56;;;;;;;17.30;11.60;;;15.30;99.90;;;;;;5013992;28;20022;-71
2022/10/08 04:20:22;;;;;;;16.37;11.67;;;15.30;99.90;;;;;;5013355;28;20026;-71
2022/10/08 04:22:47;;;;;;;19.53;11.33;;;15.30;99.90;;;;;;5018919;28;20038;-72
2022/10/08 04:25:18;;;;;;;18.00;11.60;;;15.30;99.90;;;;;;5014731;28;20087;-73
2022/10/08 04:27:47;;;;;;;23.27;11.77;;;15.30;99.90;;;;;;5015105;28;20352;-71
2022/10/08 04:30:14;;;;;;;23.55;12.90;;;15.20;99.90;;;;;;5013548;28;20025;-71
2022/10/08 04:32:39;;;;;;;21.67;12.00;;;15.30;99.90;;;;;;5014855;28;20030;-72
2022/10/08 04:35:06;;;;;;;22.27;12.03;;;15.30;99.90;;;;;;5014575;28;20049;-70
2022/10/08 04:37:31;;;;;;;22.23;12.50;;;15.20;99.90;;;;;;5013930;28;20387;-72
2022/10/08 04:39:57;;;;;;;22.20;12.98;;;15.30;99.90;;;;;;5013491;28;20065;-69
2022/10/08 04:42:22;;;;;;;22.60;12.20;;;15.30;99.90;;;;;;5014706;28;20055;-72
2022/10/08 04:44:48;;;;;;;23.33;13.37;;;15.20;99.90;;;;;;5014392;28;20030;-72
2022/10/08 04:47:13;;;;;;;18.87;11.63;;;15.20;99.90;;;;;;5006315;28;20156;-72
2022/10/08 04:49:39;;;;;;;21.07;12.67;;;15.20;99.90;;;;;;5014790;28;20034;-72
2022/10/08 04:52:04;;;;;;;24.50;12.23;;;15.20;99.90;;;;;;5013273;28;20054;-71
2022/10/08 04:54:30;;;;;;;25.67;11.50;;;15.20;99.90;;;;;;5014353;28;20022;-71
2022/10/08 04:56:55;;;;;;;24.97;12.17;;;15.00;99.90;;;;;;5012855;28;20482;-72
2022/10/08 04:59:21;;;;;;;21.50;12.43;;;15.10;99.90;;;;;;5014148;28;20026;-72
2022/10/08 05:01:46;;;;;;;24.30;12.43;;;14.90;99.90;;;;;;5014446;28;20756;-71
2022/10/08 05:04:12;;;;;;;20.00;11.63;;;15.00;99.90;;;;;;5029418;28;20548;-71
2022/10/08 05:06:37;;;;;;;18.90;12.37;;;15.10;99.90;;;;;;5014435;28;20073;-72
2022/10/08 05:09:03;;;;;;;25.03;12.20;;;15.00;99.90;;;;;;5029985;28;20109;-71
2022/10/08 05:11:29;;;;;;;16.47;12.30;;;14.90;99.90;;;;;;5029011;28;20030;-72
2022/10/08 05:13:56;;;;;;;16.70;10.90;;;15.00;99.90;;;;;;5013524;28;20025;-72
2022/10/08 05:16:23;;;;;;;17.25;11.60;;;15.00;99.90;;;;;;5029185;28;20029;-71
2022/10/08 05:18:50;;;;;;;21.52;11.77;;;15.00;99.90;;;;;;5029204;28;20541;-71
2022/10/08 05:21:20;;;;;;;21.90;12.10;;;15.00;99.90;;;;;;5013258;28;20038;-71
2022/10/08 05:23:46;;;;;;;19.50;11.55;;;15.00;99.90;;;;;;5014145;28;20441;-71
2022/10/08 05:26:16;;;;;;;20.40;12.17;;;15.00;99.90;;;;;;5028828;28;20128;-71
2022/10/08 05:28:42;;;;;;;19.15;12.55;;;14.90;99.90;;;;;;5014005;28;20256;-73
2022/10/08 05:31:08;;;;;;;26.52;13.35;;;14.70;99.90;;;;;;5012492;28;20022;-72
2022/10/08 05:33:35;;;;;;;17.10;11.52;;;14.70;99.90;;;;;;5016590;28;20065;-72
2022/10/08 05:36:05;;;;;;;20.92;12.73;;;14.60;99.90;;;;;;5012761;28;20030;-72
2022/10/08 05:38:31;;;;;;;20.85;12.43;;;14.60;99.90;;;;;;5013088;28;20160;-71
2022/10/08 05:41:14;;;;;;;20.20;12.20;;;14.50;99.90;;;;;;5012092;28;20022;-71
2022/10/08 05:43:40;;;;;;;19.08;12.20;;;14.60;99.90;;;;;;5029099;28;20037;-72
2022/10/08 05:46:06;;;;;;;20.90;12.38;;;14.70;99.90;;;;;;5013886;28;20018;-72
2022/10/08 05:48:32;;;;;;;23.00;12.98;;;14.70;99.90;;;;;;5029181;28;20026;-72
2022/10/08 05:51:04;;;;;;;20.95;12.07;;;14.70;99.90;;;;;;5013946;28;20018;-71
2022/10/08 05:53:29;;;;;;;20.55;11.80;;;14.60;99.90;;;;;;5013559;28;20038;-72
2022/10/08 05:56:00;;;;;;;16.20;10.83;;;14.60;99.90;;;;;;5013347;28;20037;-72
2022/10/08 05:58:26;;;;;;;19.98;12.18;;;14.60;99.90;;;;;;5009057;28;20281;-72
2022/10/08 06:00:59;;;;;;;17.93;11.60;;;14.50;99.90;;;;;;4993914;28;20060;-73
2022/10/08 06:03:25;;;;;;;21.42;11.63;;;14.40;99.90;;;;;;5002933;28;20646;-72
2022/10/08 06:05:50;;;;;;;23.23;11.23;;;14.40;99.90;;;;;;5013784;28;20041;-72
2022/10/08 06:08:16;;;;;;;20.33;11.05;;;14.50;99.90;;;;;;5013906;28;20552;-72
2022/10/08 06:10:52;;;;;;;20.17;11.07;;;14.40;99.90;;;;;;5013396;28;20048;-73
2022/10/08 06:13:19;;;;;;;18.25;10.85;;;14.40;99.90;;;;;;5019780;22;20045;-70
2022/10/08 06:15:57;;;;;;;;;;;14.60;99.90;;;;;;5014069;28;20157;-70
2022/10/08 06:18:25;;;;;;;16.30;10.20;;;14.60;99.90;;;;;;4999939;28;20103;-70
2022/10/08 06:20:51;;;;;;;20.17;10.75;;;14.60;99.90;;;;;;5002786;28;20474;-69
2022/10/08 06:23:20;;;;;;;17.90;10.65;;;14.60;99.90;;;;;;5009487;28;20042;-71
2022/10/08 06:25:46;;;;;;;22.13;10.45;;;14.70;99.90;;;;;;5003763;28;20026;-69
2022/10/08 06:28:13;;;;;;;16.05;9.38;;;14.70;99.90;;;;;;5005651;28;20037;-70
2022/10/08 06:30:42;;;;;;;18.17;9.73;;;14.60;99.90;;;;;;5010719;28;20030;-69
2022/10/08 06:33:09;;;;;;;16.65;10.15;;;14.60;99.90;;;;;;5003717;28;20471;-68
2022/10/08 06:35:35;;;;;;;16.75;9.95;;;14.60;99.90;;;;;;4998381;28;20098;-69
2022/10/08 06:38:01;;;;;;;;;;;14.60;99.90;;;;;;5002958;28;20098;-69
2022/10/08 06:40:30;;;;;;;14.10;9.48;;;14.70;99.90;;;;;;4997588;28;20361;-68
2022/10/08 06:42:56;;;;;;;17.95;10.05;;;14.80;99.90;;;;;;4996921;28;20498;-68
2022/10/08 06:45:22;;;;;;;18.63;10.03;;;14.80;99.90;;;;;;4996215;28;20030;-69
2022/10/08 06:47:48;;;;;;;18.20;10.07;;;14.80;99.90;;;;;;4996480;28;20289;-69
2022/10/08 06:50:13;;;;;;;;;;;14.80;99.90;;;;;;4997701;28;20015;-69
2022/10/08 06:52:39;;;;;;;13.40;9.27;;;14.80;99.90;;;;;;4996972;28;19912;-69
2022/10/08 06:55:05;;;;;;;17.50;10.17;;;14.90;99.90;;;;;;4996423;28;20034;-70
2022/10/08 06:57:30;;;;;;;15.05;9.90;;;14.90;99.90;;;;;;4997145;28;20062;-70
2022/10/08 06:59:57;;;;;;;15.60;9.27;;;14.80;99.90;;;;;;4996360;28;20558;-69
2022/10/08 07:02:23;;;;;;;13.60;8.93;;;14.80;99.90;;;;;;4997109;28;20102;-70
2022/10/08 07:04:51;;;;;;;19.65;9.60;;;15.00;99.90;;;;;;4997862;28;20054;-69
2022/10/08 07:07:18;;;;;;;17.45;8.60;;;15.10;99.90;;;;;;4997342;28;20031;-69
2022/10/08 07:09:44;;;;;;;16.08;8.77;;;15.10;99.90;;;;;;4997044;28;20459;-70
2022/10/08 07:12:12;;;;;;;15.70;8.50;;;15.10;99.90;;;;;;4997290;28;20069;-69
2022/10/08 07:14:38;;;;;;;15.88;8.68;;;15.00;99.90;;;;;;4995461;28;20038;-70
2022/10/08 07:17:03;;;;;;;13.27;8.20;;;15.00;99.90;;;;;;4995223;28;20035;-69
2022/10/08 07:19:29;;;;;;;13.83;7.30;;;15.10;99.90;;;;;;4996501;28;20373;-69
2022/10/08 07:21:55;;;;;;;14.27;8.10;;;15.20;99.90;;;;;;4996330;28;20097;-69
2022/10/08 07:24:20;;;;;;;14.27;7.85;;;15.10;99.90;;;;;;4995726;28;20414;-64
2022/10/08 07:26:46;;;;;;;14.77;7.50;;;15.10;99.90;;;;;;4995511;28;20031;-68
2022/10/08 07:29:13;;;;;;;14.25;7.88;;;15.10;99.90;;;;;;4996007;28;20061;-68
2022/10/08 07:31:41;;;;;;;13.70;8.25;;;15.00;99.90;;;;;;4996584;28;20081;-69
2022/10/08 07:34:10;;;;;;;18.08;7.15;;;15.00;99.90;;;;;;4996639;28;20431;-69
2022/10/08 07:36:37;;;;;;;13.52;8.20;;;15.00;99.90;;;;;;4993926;28;20033;-71
2022/10/08 07:39:06;;;;;;;10.93;7.15;;;15.00;99.90;;;;;;4996517;28;20030;-69
2022/10/08 07:41:32;;;;;;;17.77;9.13;;;15.00;99.90;;;;;;4996459;28;20030;-70
2022/10/08 07:44:00;;;;;;;13.57;8.02;;;15.00;99.90;;;;;;5006026;28;20506;-69
2022/10/08 07:46:31;;;;;;;14.95;6.60;;;15.00;99.90;;;;;;5000014;28;20047;-70
2022/10/08 07:49:03;;;;;;;12.77;7.13;;;15.00;99.90;;;;;;4998855;28;20030;-69
2022/10/08 07:51:31;;;;;;;15.20;6.45;;;14.90;99.90;;;;;;4997371;28;20403;-70
2022/10/08 07:53:58;;;;;;;11.50;5.75;;;15.00;99.90;;;;;;4998551;28;20025;-72
2022/10/08 07:56:24;;;;;;;14.48;6.63;;;15.20;99.90;;;;;;4998370;28;20018;-68
2022/10/08 07:58:50;;;;;;;13.07;6.30;;;15.10;99.90;;;;;;4999212;28;20030;-69
2022/10/08 08:01:21;;;;;;;12.75;6.32;;;15.10;99.90;;;;;;4997242;28;20199;-68
2022/10/08 08:04:04;;;;;;;12.52;6.90;;;15.20;99.90;;;;;;4999616;28;20058;-70
2022/10/08 08:06:31;;;;;;;19.63;9.52;;;15.20;99.90;;;;;;4998633;28;20512;-70
2022/10/08 08:08:59;;;;;;;20.70;9.23;;;15.30;99.90;;;;;;5000145;28;20023;-70
2022/10/08 08:11:24;;;;;;;18.92;6.68;;;15.40;99.90;;;;;;5001715;28;20055;-69
2022/10/08 08:13:51;;;;;;;14.80;5.70;;;15.40;99.90;;;;;;5004276;28;20486;-69
2022/10/08 08:16:24;;;;;;;11.50;6.40;;;15.40;99.90;;;;;;5007046;28;20042;-69
2022/10/08 08:18:51;;;;;;;11.00;5.90;;;15.50;99.90;;;;;;5005121;28;20022;-70
2022/10/08 08:21:23;;;;;;;13.00;5.70;;;15.60;99.90;;;;;;5003508;28;20073;-70
2022/10/08 08:23:51;;;;;;;8.60;4.90;;;15.70;99.90;;;;;;4998964;28;20023;-71
2022/10/08 08:26:19;;;;;;;9.88;4.38;;;15.70;99.90;;;;;;4995693;28;20022;-70
2022/10/08 08:28:49;;;;;;;15.13;4.78;;;15.90;99.90;;;;;;4998045;28;20031;-69
2022/10/08 08:31:21;;;;;;;9.65;4.80;;;15.90;99.90;;;;;;4997161;28;20058;-71
2022/10/08 08:33:49;;;;;;;31.40;24.35;;;16.00;99.90;;;;;;4995026;28;20076;-68
2022/10/08 08:36:19;;;;;;;11.05;4.13;;;16.10;99.90;;;;;;4995266;28;20027;-69
2022/10/08 08:38:45;;;;;;;11.48;3.70;;;16.20;99.90;;;;;;4997046;28;20030;-69
2022/10/08 08:41:46;;;;;;;8.95;3.47;;;16.20;99.90;;;;;;4996553;28;20018;-68
2022/10/08 08:44:21;;;;;;;9.48;3.40;;;16.30;99.90;;;;;;4994478;28;20105;-69
2022/10/08 08:46:55;;;;;;;8.55;3.15;;;16.30;99.90;;;;;;4993552;28;20026;-67
2022/10/08 08:49:53;;;;;;;10.93;3.85;;;16.40;99.90;;;;;;4994819;28;20046;-67
2022/10/08 08:52:23;;;;;;;9.85;4.28;;;16.50;99.90;;;;;;4919510;29;20559;-69
2022/10/08 08:54:52;;;;;;;10.32;3.67;;;16.60;99.90;;;;;;4920291;29;20035;-68
2022/10/08 08:57:36;;;;;;;9.82;3.80;;;16.50;99.90;;;;;;4917354;29;20028;-69
2022/10/08 09:00:22;;;;;;;12.40;3.45;;;16.50;99.90;;;;;;4916264;29;20031;-68
2022/10/08 09:02:58;;;;;;;9.02;3.92;;;16.60;99.90;;;;;;4917354;29;20040;-69
2022/10/08 09:05:25;;;;;;;10.05;3.47;;;16.90;99.90;;;;;;4916830;29;20032;-71
2022/10/08 09:07:58;;;;;;;16.63;4.63;;;17.30;99.90;;;;;;4915410;29;20040;-71
2022/10/08 09:10:34;;;;;;;9.15;2.85;;;17.50;99.90;;;;;;4915564;29;20075;-72
2022/10/08 09:13:01;;;;;;;9.10;3.00;;;17.70;99.90;;;;;;4915440;29;20083;-72
2022/10/08 09:15:33;;;;;;;11.25;2.67;;;17.90;99.90;;;;;;4915406;29;20239;-73
2022/10/08 09:18:02;;;;;;;9.23;3.20;;;18.10;99.90;;;;;;4915428;29;20379;-74
2022/10/08 09:20:28;;;;;;;7.70;3.00;;;18.30;99.90;;;;;;4899525;29;20516;-74
2022/10/08 09:22:54;;;;;;;7.05;2.75;;;19.10;99.90;;;;;;4915239;29;20053;-69
2022/10/08 09:25:23;;;;;;;9.05;3.05;;;19.70;99.90;;;;;;4919600;29;20039;-71
2022/10/08 09:27:50;;;;;;;12.18;4.05;;;19.90;99.90;;;;;;4943076;28;20045;-71
2022/10/08 09:30:39;;;;;;;9.30;2.95;;;19.80;99.90;;;;;;4973135;28;20026;-70
2022/10/08 09:33:21;;;;;;;6.80;2.17;;;19.90;99.90;;;;;;4983619;28;20371;-71
2022/10/08 09:35:52;;;;;;;8.80;2.33;;;20.00;99.90;;;;;;4993211;28;20022;-72
2022/10/08 09:38:23;;;;;;;9.27;2.42;;;20.60;99.90;;;;;;4993180;28;20080;-69
2022/10/08 09:41:02;;;;;;;11.65;2.60;;;20.80;99.90;;;;;;4994435;28;20033;-71
2022/10/08 09:43:28;;;;;;;8.70;2.63;;;21.30;99.90;;;;;;4992924;28;20052;-75
2022/10/08 09:45:54;;;;;;;9.55;2.30;;;22.70;97.60;;;;;;4993081;28;20487;-74
2022/10/08 09:48:21;;;;;;;;;;;23.70;95.90;;;;;;4993019;28;20073;-71
2022/10/08 09:51:03;;;;;;;5.85;2.20;;;24.20;93.70;;;;;;4993909;28;19969;-71
2022/10/08 09:53:51;;;;;;;12.93;2.63;;;24.80;92.00;;;;;;4982043;28;20450;-71
2022/10/08 09:56:27;;;;;;;8.18;2.28;;;26.20;90.30;;;;;;4974433;28;20018;-71
2022/10/08 09:58:54;;;;;;;19.65;5.93;;;27.50;84.80;;;;;;4974335;28;20070;-73
2022/10/08 10:01:20;;;;;;;8.35;2.30;;;27.70;82.30;;;;;;4973382;28;20030;-71
2022/10/08 10:03:53;;;;;;;;;;;28.20;79.90;;;;;;4974782;28;20019;-70
2022/10/08 10:06:38;;;;;;;10.93;2.63;;;28.80;79.50;;;;;;4974454;28;19996;-71
2022/10/08 10:09:10;;;;;;;8.63;2.00;;;29.30;75.90;;;;;;4974782;28;20309;-72
2022/10/08 10:11:46;;;;;;;8.90;2.08;;;29.70;74.90;;;;;;4974454;28;20019;-70
2022/10/08 10:14:41;;;;;;;6.45;2.05;;;31.10;72.50;;;;;;4977630;28;20387;-68
2022/10/08 10:17:17;;;;;;;7.18;1.88;;;32.40;69.60;;;;;;4974226;28;20038;-69
2022/10/08 10:19:50;;;;;;;10.07;2.90;;;32.20;69.20;;;;;;4973999;28;20027;-67
2022/10/08 10:22:26;;;;;;;8.98;2.00;;;31.90;67.00;;;;;;4979809;28;20519;-71
2022/10/08 10:25:13;;;;;;;5.90;1.60;;;31.90;69.90;;;;;;4988726;28;20025;-71
2022/10/08 10:27:59;;;;;;;;;;;33.00;65.60;;;;;;4992730;28;20034;-72
2022/10/08 10:30:24;;;;;;;8.32;2.13;;;33.50;63.80;;;;;;4993165;28;19992;-68
2022/10/08 10:33:09;;;;;;;6.60;1.67;;;31.00;63.90;;;;;;4993484;28;20042;-70
2022/10/08 10:35:44;;;;;;;10.43;2.33;;;29.30;66.50;;;;;;4991696;28;20049;-68
2022/10/08 10:38:26;;;;;;;6.07;1.67;;;28.60;69.70;;;;;;4993534;28;20134;-67
2022/10/08 10:41:25;;;;;;;7.10;1.85;;;30.50;66.10;;;;;;4991949;28;20479;-69
2022/10/08 10:43:56;;;;;;;5.10;1.80;;;31.60;64.80;;;;;;5002496;28;20065;-76
2022/10/08 10:46:45;;;;;;;7.22;1.98;;;31.10;65.80;;;;;;4996883;28;20099;-74
2022/10/08 10:49:20;;;;;;;7.78;2.00;;;30.60;64.30;;;;;;4988844;28;20482;-73
2022/10/08 10:52:17;;;;;;;7.03;1.60;;;29.90;65.30;;;;;;4992257;28;20125;-74
2022/10/08 10:55:03;;;;;;;8.40;2.20;;;27.70;67.60;;;;;;4994103;28;20058;-75
2022/10/08 10:57:52;;;;;;;7.05;2.47;;;25.50;71.70;;;;;;4992346;28;20507;-71
2022/10/08 11:00:26;;;;;;;7.63;1.50;;;24.10;74.90;;;;;;4992209;28;20553;-71
2022/10/08 11:03:14;;;;;;;7.05;1.88;;;23.20;77.70;;;;;;4992715;28;20415;-72
2022/10/08 11:05:43;;;;;;;7.82;2.08;;;22.60;81.80;;;;;;4993598;28;20069;-72
2022/10/08 11:08:32;;;;;;;7.53;1.70;;;22.30;81.30;;;;;;4992589;28;20054;-69
2022/10/08 11:11:04;;;;;;;9.77;1.70;;;22.00;82.60;;;;;;4994354;28;20061;-70
2022/10/08 11:13:49;;;;;;;6.22;1.70;;;21.20;84.10;;;;;;4988217;28;20046;-69
2022/10/08 11:16:33;;;;;;;5.57;1.65;;;20.40;86.70;;;;;;4976176;28;20070;-68
2022/10/08 11:19:01;;;;;;;9.18;1.80;;;20.10;89.20;;;;;;4977364;28;20488;-70
2022/10/08 11:21:38;;;;;;;3.80;1.50;;;20.10;90.90;;;;;;4988088;28;20037;-66
2022/10/08 11:24:46;;;;;;;5.97;1.88;;;20.30;90.10;;;;;;4996032;28;20103;-66
2022/10/08 11:27:26;;;;;;;4.45;1.20;;;20.20;88.10;;;;;;4982433;28;20120;-67
2022/10/08 11:30:20;;;;;;;4.85;1.30;;;20.10;88.10;;;;;;4996281;28;20480;-66
2022/10/08 11:32:52;;;;;;;7.22;1.70;;;20.10;88.70;;;;;;4995358;28;20468;-66
2022/10/08 11:35:24;;;;;;;5.88;1.20;;;19.90;89.70;;;;;;4995794;28;20069;-66
2022/10/08 11:38:17;;;;;;;5.75;1.75;;;19.90;90.30;;;;;;4996570;28;20018;-67
2022/10/08 11:40:47;;;;;;;5.43;1.23;;;20.10;89.80;;;;;;4996262;28;20057;-67
2022/10/08 11:43:26;;;;;;;4.53;1.23;;;20.00;89.90;;;;;;4995882;28;20104;-67
2022/10/08 11:46:27;;;;;;;4.95;1.15;;;19.80;90.20;;;;;;4995828;28;20458;-67
2022/10/08 11:48:54;;;;;;;4.50;1.40;;;19.90;90.30;;;;;;4996007;28;20501;-67
2022/10/08 11:51:19;;;;;;;5.20;1.38;;;19.90;89.80;;;;;;4995988;28;20054;-67
2022/10/08 11:53:57;;;;;;;6.17;1.53;;;19.90;90.10;;;;;;4995852;28;20029;-67
2022/10/08 11:56:22;;;;;;;5.57;1.30;;;20.00;89.90;;;;;;4996074;28;20046;-67
2022/10/08 11:58:55;;;;;;;2.95;0.95;;;19.80;89.60;;;;;;4994315;28;20060;-67
2022/10/08 12:01:21;;;;;;;3.25;1.08;;;19.80;89.80;;;;;;4995652;28;20026;-67
2022/10/08 12:04:03;;;;;;;5.35;1.15;;;19.90;89.60;;;;;;4996045;28;20360;-67
2022/10/08 12:06:34;;;;;;;5.50;1.50;;;19.80;89.80;;;;;;4994331;28;20095;-67
2022/10/08 12:09:05;;;;;;;6.25;2.72;;;19.80;89.90;;;;;;4996002;28;20018;-67
2022/10/08 12:11:31;;;;;;;5.30;1.50;;;19.70;90.10;;;;;;4995608;28;20085;-67
2022/10/08 12:14:15;;;;;;;7.60;1.47;;;19.70;90.30;;;;;;4994497;28;20391;-67
2022/10/08 12:16:47;;;;;;;3.03;1.33;;;19.80;89.60;;;;;;4995673;28;20065;-67
2022/10/08 12:19:41;;;;;;;3.30;1.10;;;19.90;89.60;;;;;;4995304;28;20084;-68
2022/10/08 12:22:16;;;;;;;4.22;1.23;;;20.10;89.70;;;;;;4995515;28;20027;-68
2022/10/08 12:24:48;;;;;;;3.78;1.02;;;20.10;89.20;;;;;;4994004;28;20057;-66
2022/10/08 12:27:16;;;;;;;4.72;1.40;;;20.10;89.70;;;;;;4995275;28;20099;-67
2022/10/08 12:30:04;;;;;;;4.32;0.98;;;20.00;90.00;;;;;;4995179;28;20026;-67
2022/10/08 12:32:52;;;;;;;7.13;1.48;;;20.00;90.50;;;;;;4995565;28;20023;-67
2022/10/08 12:35:31;;;;;;;3.85;1.40;;;20.00;90.60;;;;;;4995242;28;20025;-67
2022/10/08 12:38:12;;;;;;;2.88;0.93;;;20.00;90.70;;;;;;4995365;28;20084;-68
2022/10/08 12:41:05;;;;;;;3.28;1.10;;;19.90;90.40;;;;;;4996081;28;20069;-67
2022/10/08 12:43:46;;;;;;;4.32;1.05;;;19.60;90.40;;;;;;4998250;28;20065;-69
2022/10/08 12:46:16;;;;;;;4.82;0.98;;;19.60;90.60;;;;;;4998500;28;20029;-68
2022/10/08 12:49:08;;;;;;;3.28;1.00;;;19.70;90.70;;;;;;5003484;28;20112;-69
2022/10/08 12:52:02;;;;;;;6.72;1.05;;;19.80;90.50;;;;;;4996115;28;20036;-66
2022/10/08 12:54:29;;;;;;;5.63;1.48;;;19.60;90.70;;;;;;4995769;28;20030;-67
2022/10/08 12:56:55;;;;;;;1.92;0.77;;;19.60;91.00;;;;;;4996899;28;20438;-66
2022/10/08 12:59:23;;;;;;;5.82;1.13;;;19.60;90.90;;;;;;4995275;28;20023;-66
2022/10/08 13:01:50;;;;;;;4.97;0.80;;;19.80;90.70;;;;;;4993227;28;20031;-66